< < Back
Terminal Aerodrome Forecast


Current Version              Previous Versions:   1  2  3  4  5  6  7  8  9  

Terminal Aerodrome Forecast

752
FTUS42 KCAE 252034 AAA
TAFAGS
TAF AMD
KAGS 252034Z 2521/2618 VRB05KT P6SM SCT070
     FM260100 VRB03KT P6SM SKC
     FM260800 00000KT 3SM BR SCT001
     FM261300 VRB05KT P6SM SCT250=

Latest METAR

794
SAUS70 KWBC 252200 RRJ
MTRAGS
METAR KAGS 252153Z VRB03KT 10SM CLR 31/11 A3015 RMK AO2 SLP209
T03060106


USA.gov is the U.S. government's official web portal to all federal, state and local government web resources and services.